createdAt,value
2019-05-01T00:02:05.690Z,48.50
2019-05-01T00:04:39.426Z,49.00
2019-05-01T00:07:13.620Z,45.00
2019-05-01T00:09:47.373Z,48.80
2019-05-01T00:12:21.108Z,45.50
2019-05-01T00:14:54.819Z,45.00
2019-05-01T00:17:28.548Z,45.00
2019-05-01T00:20:03.306Z,46.00
2019-05-01T00:22:37.037Z,45.00
2019-05-01T00:25:10.898Z,42.50
2019-05-01T00:27:44.838Z,45.25
2019-05-01T00:30:29.259Z,49.50
2019-05-01T00:32:53.963Z,42.75
2019-05-01T00:35:27.670Z,45.50
2019-05-01T00:38:01.395Z,42.40
2019-05-01T00:40:35.090Z,46.50
2019-05-01T00:43:08.802Z,46.00
2019-05-01T00:45:42.520Z,45.00
2019-05-01T00:48:16.278Z,45.00
2019-05-01T00:50:50.013Z,49.25
2019-05-01T00:53:23.716Z,50.00
2019-05-01T00:55:57.425Z,48.80
2019-05-01T00:58:31.146Z,45.50
2019-05-01T01:01:04.937Z,47.75
2019-05-01T01:03:38.645Z,46.80
2019-05-01T01:06:12.363Z,45.75
2019-05-01T01:08:46.077Z,44.50
2019-05-01T01:11:19.794Z,51.00
2019-05-01T01:13:53.513Z,51.00
2019-05-01T01:16:27.499Z,49.75
2019-05-01T01:19:01.203Z,46.25
2019-05-01T01:21:34.932Z,47.75
2019-05-01T01:24:08.654Z,50.80
2019-05-01T01:26:42.362Z,48.25
2019-05-01T01:29:16.060Z,44.25
2019-05-01T01:32:09.182Z,48.50
2019-05-01T01:34:42.871Z,43.50
2019-05-01T01:37:16.591Z,49.00
2019-05-01T01:39:50.285Z,44.25
2019-05-01T01:42:24.030Z,50.50
2019-05-01T01:44:57.738Z,44.00
2019-05-01T01:47:31.441Z,46.75
2019-05-01T01:50:06.419Z,46.00
2019-05-01T01:52:40.147Z,43.75
2019-05-01T01:55:13.981Z,47.20
2019-05-01T01:57:47.710Z,47.75
2019-05-01T02:00:21.422Z,42.75
2019-05-01T02:02:55.184Z,47.25
2019-05-01T02:05:28.878Z,45.00
2019-05-01T02:08:02.589Z,44.25
2019-05-01T02:10:43.012Z,48.00
2019-05-01T02:13:11.769Z,51.40
2019-05-01T02:15:45.449Z,47.00
2019-05-01T02:18:19.164Z,47.25
2019-05-01T02:20:52.863Z,44.00
2019-05-01T02:23:26.574Z,49.00
2019-05-01T02:26:00.351Z,49.75
2019-05-01T02:28:34.047Z,44.75
2019-05-01T02:31:07.753Z,47.75
2019-05-01T02:33:41.458Z,50.75
2019-05-01T02:36:15.507Z,47.25
2019-05-01T02:38:49.228Z,42.25
2019-05-01T02:41:24.573Z,45.00
2019-05-01T02:44:04.616Z,49.50
2019-05-01T02:46:39.379Z,45.00
2019-05-01T02:49:25.409Z,38.75
2019-05-01T02:51:59.147Z,47.75
2019-05-01T02:54:33.417Z,45.40
2019-05-01T02:57:07.508Z,43.50
2019-05-01T02:59:43.122Z,45.75
2019-05-01T03:02:17.011Z,45.50
2019-05-01T03:04:51.342Z,49.00
2019-05-01T03:07:25.070Z,50.20
2019-05-01T03:09:59.040Z,48.00
2019-05-01T03:12:32.817Z,49.50
2019-05-01T03:15:06.602Z,47.25
2019-05-01T03:17:40.315Z,48.00
2019-05-01T03:20:14.031Z,46.20
2019-05-01T03:22:47.734Z,47.25
2019-05-01T03:25:21.436Z,50.00
2019-05-01T03:27:55.175Z,46.00
2019-05-01T03:30:28.897Z,51.75
2019-05-01T03:33:03.642Z,47.50
2019-05-01T03:35:37.343Z,47.00
2019-05-01T03:38:11.125Z,51.00
2019-05-01T03:40:44.854Z,50.25
2019-05-01T03:43:18.567Z,51.50
2019-05-01T03:45:52.365Z,47.25
2019-05-01T03:48:26.173Z,53.40
2019-05-01T03:50:59.898Z,50.75
2019-05-01T03:53:33.994Z,50.75
2019-05-01T03:56:07.683Z,50.00
2019-05-01T03:58:41.387Z,56.25
2019-05-01T04:01:15.100Z,49.50
2019-05-01T04:03:49.151Z,54.75
2019-05-01T04:06:22.929Z,49.50
2019-05-01T04:08:56.645Z,53.50
2019-05-01T04:11:30.421Z,52.80
2019-05-01T04:14:04.665Z,51.75
2019-05-01T04:16:38.380Z,56.80
2019-05-01T04:19:12.147Z,57.25
2019-05-01T04:21:45.849Z,52.50
2019-05-01T04:24:19.559Z,51.50
2019-05-01T04:26:53.280Z,54.80
2019-05-01T04:29:27.000Z,56.50
2019-05-01T04:32:00.919Z,54.00
2019-05-01T04:34:34.639Z,52.00
2019-05-01T04:37:08.334Z,49.00
2019-05-01T04:39:42.052Z,50.00
2019-05-01T04:42:15.791Z,51.75
2019-05-01T04:44:49.500Z,47.75
2019-05-01T04:47:23.218Z,43.50
2019-05-01T04:49:56.917Z,47.00
2019-05-01T04:52:30.617Z,50.25
2019-05-01T04:55:05.265Z,46.80
2019-05-01T04:57:38.994Z,52.00
2019-05-01T05:00:12.696Z,44.25
2019-05-01T05:02:46.403Z,47.00
2019-05-01T05:05:20.103Z,45.25
2019-05-01T05:07:54.297Z,44.25
2019-05-01T05:10:28.008Z,42.00
2019-05-01T05:13:01.710Z,38.50
2019-05-01T05:15:35.415Z,46.50
2019-05-01T05:18:09.128Z,37.50
2019-05-01T05:20:42.835Z,37.75
2019-05-01T05:23:16.559Z,35.60
2019-05-01T05:25:50.338Z,38.75
2019-05-01T05:28:24.043Z,40.50
2019-05-01T05:30:57.759Z,36.75
2019-05-01T05:33:32.622Z,37.75
2019-05-01T05:36:06.482Z,39.25
2019-05-01T05:38:40.205Z,38.50
2019-05-01T05:41:13.936Z,32.50
2019-05-01T05:43:47.652Z,35.20
2019-05-01T05:46:21.372Z,33.25
2019-05-01T05:48:55.064Z,37.00
2019-05-01T05:51:28.870Z,30.60
2019-05-01T05:54:02.565Z,34.00
2019-05-01T05:56:36.276Z,30.75
2019-05-01T05:59:10.055Z,34.00
2019-05-01T06:01:44.918Z,34.50
2019-05-01T06:04:18.706Z,28.75
2019-05-01T06:06:53.352Z,33.25
2019-05-01T06:09:28.082Z,31.50
2019-05-01T06:12:04.899Z,30.75
2019-05-01T06:14:37.245Z,30.00
2019-05-01T06:17:10.954Z,31.80
2019-05-01T06:19:45.859Z,32.25
2019-05-01T06:22:20.069Z,31.00
2019-05-01T06:24:53.784Z,28.75
2019-05-01T06:27:27.494Z,29.00
2019-05-01T06:30:01.202Z,29.00
2019-05-01T06:32:36.261Z,22.20
2019-05-01T06:35:10.063Z,28.40
2019-05-01T06:38:00.710Z,27.25
2019-05-01T06:40:37.071Z,32.25
2019-05-01T06:43:27.271Z,33.00
2019-05-01T06:46:01.161Z,27.50
2019-05-01T06:48:34.897Z,26.60
2019-05-01T06:51:08.598Z,23.00
2019-05-01T06:53:42.308Z,30.25
2019-05-01T06:56:16.122Z,31.00
2019-05-01T06:58:51.048Z,27.00
2019-05-01T07:01:25.272Z,34.50
2019-05-01T07:04:06.150Z,32.50
2019-05-01T07:06:34.835Z,34.25
2019-05-01T07:09:11.948Z,33.25
2019-05-01T07:11:47.738Z,33.75
2019-05-01T07:14:19.491Z,26.50
2019-05-01T07:16:53.241Z,30.25
2019-05-01T07:19:26.988Z,33.00
2019-05-01T07:22:01.804Z,25.50
2019-05-01T07:24:36.135Z,32.25
2019-05-01T07:27:09.883Z,30.40
2019-05-01T07:29:45.032Z,31.00
2019-05-01T07:32:19.111Z,33.00
2019-05-01T07:34:56.962Z,32.25
2019-05-01T07:37:28.240Z,32.60
2019-05-01T07:40:02.001Z,33.00
2019-05-01T07:42:35.715Z,31.00
2019-05-01T07:45:09.785Z,33.50
2019-05-01T07:47:43.588Z,32.75
2019-05-01T07:50:17.297Z,34.80
2019-05-01T07:52:52.258Z,26.25
2019-05-01T07:55:26.424Z,28.50
2019-05-01T07:58:00.145Z,33.00
2019-05-01T08:00:47.987Z,35.75
2019-05-01T08:03:21.707Z,32.50
2019-05-01T08:05:55.406Z,28.25
2019-05-01T08:08:29.119Z,34.80
2019-05-01T08:11:05.354Z,29.50
2019-05-01T08:13:38.316Z,34.00
2019-05-01T08:16:12.011Z,30.00
2019-05-01T08:18:45.823Z,31.50
2019-05-01T08:21:21.254Z,32.00
2019-05-01T08:23:54.968Z,30.50
2019-05-01T08:26:28.706Z,29.25
2019-05-01T08:29:02.970Z,37.75
2019-05-01T08:31:37.859Z,32.50
2019-05-01T08:34:11.568Z,36.75
2019-05-01T08:36:47.176Z,36.00
2019-05-01T08:39:22.885Z,34.50
2019-05-01T08:41:56.602Z,28.00
2019-05-01T08:44:30.857Z,33.25
2019-05-01T08:47:04.708Z,33.50
2019-05-01T08:49:42.196Z,38.25
2019-05-01T08:52:14.149Z,37.60
2019-05-01T08:54:47.899Z,37.00
2019-05-01T08:57:21.639Z,36.50
2019-05-01T08:59:55.654Z,35.25
2019-05-01T09:02:30.868Z,38.75
2019-05-01T09:05:07.146Z,37.75
2019-05-01T09:07:40.928Z,37.25
2019-05-01T09:10:16.992Z,37.25
2019-05-01T09:12:52.072Z,37.50
2019-05-01T09:15:25.551Z,36.25
2019-05-01T09:17:59.265Z,34.25
2019-05-01T09:20:32.978Z,39.50
2019-05-01T09:23:09.498Z,35.00
2019-05-01T09:25:42.138Z,36.50
2019-05-01T09:28:15.978Z,39.75
2019-05-01T09:30:49.697Z,36.25
2019-05-01T09:33:26.207Z,40.60
2019-05-01T09:35:59.331Z,36.50
2019-05-01T09:38:33.064Z,39.50
2019-05-01T09:41:06.846Z,39.00
2019-05-01T09:43:40.626Z,43.00
2019-05-01T09:46:14.486Z,40.00
2019-05-01T09:48:48.343Z,41.50
2019-05-01T09:51:22.045Z,44.75
2019-05-01T09:53:55.751Z,42.75
2019-05-01T09:56:29.499Z,44.20
2019-05-01T09:59:03.217Z,44.75
2019-05-01T10:01:36.931Z,41.00
2019-05-01T10:04:10.649Z,46.60
2019-05-01T10:06:47.597Z,38.75
2019-05-01T10:09:19.879Z,41.00
2019-05-01T10:11:53.659Z,40.40
2019-05-01T10:14:31.528Z,40.75
2019-05-01T10:17:02.776Z,43.25
2019-05-01T10:19:36.500Z,42.50
2019-05-01T10:22:10.222Z,45.50
2019-05-01T10:24:43.944Z,44.25
2019-05-01T10:27:17.661Z,41.60
2019-05-01T10:29:51.402Z,42.00
2019-05-01T10:32:25.106Z,39.00
2019-05-01T10:34:58.902Z,42.00
2019-05-01T10:37:33.568Z,39.00
2019-05-01T10:40:08.327Z,43.25
2019-05-01T10:42:42.051Z,38.75
2019-05-01T10:45:15.762Z,44.00
2019-05-01T10:47:49.505Z,40.50
2019-05-01T10:50:23.226Z,40.00
2019-05-01T10:52:56.922Z,40.50
2019-05-01T10:55:30.700Z,43.60
2019-05-01T10:58:04.488Z,40.25
2019-05-01T11:00:38.205Z,43.00
2019-05-01T11:03:13.001Z,43.17
2019-05-01T11:05:55.637Z,41.00
2019-05-01T11:08:22.154Z,41.75
2019-05-01T11:10:55.953Z,41.60
2019-05-01T11:13:29.701Z,39.75
2019-05-01T11:16:03.482Z,42.50
2019-05-01T11:18:37.311Z,42.75
2019-05-01T11:21:11.028Z,43.00
2019-05-01T11:23:44.759Z,44.50
2019-05-01T11:26:18.597Z,38.75
2019-05-01T11:28:52.298Z,41.25
2019-05-01T11:31:26.116Z,40.00
2019-05-01T11:33:59.839Z,41.80
2019-05-01T11:36:33.574Z,38.50
2019-05-01T11:39:07.337Z,45.50
2019-05-01T11:41:41.068Z,42.50
2019-05-01T11:44:14.782Z,41.25
2019-05-01T11:46:48.512Z,39.00
2019-05-01T11:49:22.314Z,43.00
2019-05-01T11:51:56.102Z,40.50
2019-05-01T11:54:29.862Z,41.25
2019-05-01T11:57:03.672Z,41.00
2019-05-01T11:59:37.394Z,42.25
2019-05-01T12:02:11.244Z,45.00
2019-05-01T12:04:44.997Z,41.40
2019-05-01T12:07:18.703Z,43.25
2019-05-01T12:09:52.407Z,43.75
2019-05-01T12:12:26.124Z,44.60
2019-05-01T12:14:59.896Z,39.25
2019-05-01T12:17:33.630Z,46.25
2019-05-01T12:20:07.402Z,43.25
2019-05-01T12:22:41.446Z,47.00
2019-05-01T12:25:15.167Z,42.00
2019-05-01T12:27:48.894Z,41.75
2019-05-01T12:30:22.697Z,46.50
2019-05-01T12:32:56.398Z,42.00
2019-05-01T12:35:30.144Z,42.20
2019-05-01T12:38:03.974Z,42.25
2019-05-01T12:40:37.747Z,44.25
2019-05-01T12:43:12.377Z,45.50
2019-05-01T12:45:46.384Z,40.25
2019-05-01T12:48:20.130Z,46.75
2019-05-01T12:50:53.961Z,43.50
2019-05-01T12:53:27.693Z,44.75
2019-05-01T12:56:01.415Z,44.50
2019-05-01T12:58:35.126Z,43.20
2019-05-01T13:01:08.870Z,45.50
2019-05-01T13:03:42.557Z,45.25
2019-05-01T13:06:16.279Z,43.00
2019-05-01T13:08:49.985Z,43.00
2019-05-01T13:11:23.782Z,44.00
2019-05-01T13:13:57.593Z,43.60
2019-05-01T13:16:31.329Z,44.00
2019-05-01T13:19:05.117Z,43.75
2019-05-01T13:21:38.929Z,42.25
2019-05-01T13:24:13.815Z,42.20
2019-05-01T13:26:47.563Z,42.40
2019-05-01T13:29:21.266Z,43.25
2019-05-01T13:31:55.038Z,41.50
2019-05-01T13:34:28.749Z,39.50
2019-05-01T13:37:03.491Z,41.80
2019-05-01T13:39:37.378Z,38.80
2019-05-01T13:42:11.095Z,40.00
2019-05-01T13:44:44.811Z,40.00
2019-05-01T13:47:18.555Z,42.33
2019-05-01T13:49:52.278Z,40.00
2019-05-01T13:52:25.991Z,37.50
2019-05-01T13:54:59.741Z,41.50
2019-05-01T13:57:33.512Z,42.20
2019-05-01T14:00:07.391Z,38.50
2019-05-01T14:02:41.106Z,39.50
2019-05-01T14:05:14.811Z,43.75
2019-05-01T14:07:48.532Z,41.60
2019-05-01T14:10:22.336Z,40.00
2019-05-01T14:12:56.091Z,43.75
2019-05-01T14:15:29.937Z,44.00
2019-05-01T14:18:03.656Z,44.60
2019-05-01T14:20:38.209Z,39.75
2019-05-01T14:23:11.939Z,41.25
2019-05-01T14:25:45.732Z,39.00
2019-05-01T14:28:19.473Z,39.25
2019-05-01T14:30:53.222Z,43.00
2019-05-01T14:33:26.986Z,42.50
2019-05-01T14:36:00.754Z,45.00
2019-05-01T14:38:34.483Z,41.00
2019-05-01T14:41:08.206Z,42.00
2019-05-01T14:43:41.992Z,43.25
2019-05-01T14:46:15.694Z,42.80
2019-05-01T14:48:49.442Z,41.00
2019-05-01T14:51:23.194Z,41.25
2019-05-01T14:53:56.897Z,42.00
2019-05-01T14:56:30.648Z,43.20
2019-05-01T14:59:04.499Z,43.00
2019-05-01T15:01:38.204Z,41.75
2019-05-01T15:04:13.121Z,42.67
2019-05-01T15:06:46.823Z,42.00
2019-05-01T15:09:20.752Z,44.50
2019-05-01T15:11:54.470Z,40.00
2019-05-01T15:14:28.199Z,44.25
2019-05-01T15:17:01.925Z,44.40
2019-05-01T15:19:35.629Z,42.00
2019-05-01T15:22:09.318Z,44.00
2019-05-01T15:24:43.130Z,40.25
2019-05-01T15:27:17.155Z,42.40
2019-05-01T15:29:50.865Z,42.40
2019-05-01T15:32:24.601Z,42.75
2019-05-01T15:34:58.333Z,43.75
2019-05-01T15:37:32.071Z,38.60
2019-05-01T15:40:06.153Z,43.25
2019-05-01T15:42:39.873Z,41.00
2019-05-01T15:45:13.574Z,42.50
2019-05-01T15:47:47.325Z,39.25
2019-05-01T15:50:21.051Z,37.40
2019-05-01T15:52:54.751Z,37.75
2019-05-01T15:55:28.485Z,40.25
2019-05-01T15:58:02.291Z,36.25
2019-05-01T16:00:36.078Z,36.25
2019-05-01T16:03:09.799Z,38.00
2019-05-01T16:05:43.512Z,37.75
2019-05-01T16:08:17.269Z,37.40
2019-05-01T16:10:50.979Z,36.20
2019-05-01T16:13:24.782Z,36.00
2019-05-01T16:15:58.520Z,39.00
2019-05-01T16:18:32.240Z,35.60
2019-05-01T16:21:05.968Z,33.50
2019-05-01T16:23:39.653Z,36.25
2019-05-01T16:26:13.352Z,37.50
2019-05-01T16:28:47.086Z,33.20
2019-05-01T16:31:20.808Z,36.50
2019-05-01T16:33:54.526Z,37.75
2019-05-01T16:36:28.266Z,33.80
2019-05-01T16:39:02.027Z,34.50
2019-05-01T16:41:35.738Z,33.25
2019-05-01T16:44:09.644Z,32.50
2019-05-01T16:46:43.656Z,31.25
2019-05-01T16:49:17.372Z,34.80
2019-05-01T16:51:51.104Z,35.25
2019-05-01T16:54:24.812Z,36.50
2019-05-01T16:56:58.593Z,32.00
2019-05-01T16:59:32.310Z,30.60
2019-05-01T17:02:06.020Z,36.50
2019-05-01T17:04:39.756Z,35.00
2019-05-01T17:07:13.543Z,35.40
2019-05-01T17:09:47.338Z,33.40
2019-05-01T17:12:21.184Z,36.25
2019-05-01T17:14:55.000Z,32.75
2019-05-01T17:17:28.724Z,37.25
2019-05-01T17:20:03.107Z,36.20
2019-05-01T17:22:36.826Z,38.00
2019-05-01T17:25:10.543Z,34.75
2019-05-01T17:27:44.281Z,38.00
2019-05-01T17:30:21.284Z,32.00
2019-05-01T17:32:55.105Z,34.50
2019-05-01T17:35:28.916Z,37.50
2019-05-01T17:38:02.701Z,37.25
2019-05-01T17:40:36.438Z,33.40
2019-05-01T17:43:13.506Z,36.25
2019-05-01T17:45:45.603Z,39.00
2019-05-01T17:48:19.633Z,36.00
2019-05-01T17:50:55.156Z,36.75
2019-05-01T17:53:28.859Z,34.75
2019-05-01T17:56:02.590Z,34.60
2019-05-01T17:58:36.301Z,34.50
2019-05-01T18:01:10.064Z,36.00
2019-05-01T18:03:43.788Z,34.75
2019-05-01T18:06:17.513Z,37.75
2019-05-01T18:09:02.509Z,37.50
2019-05-01T18:11:27.167Z,38.25
2019-05-01T18:14:00.907Z,33.75
2019-05-01T18:16:34.639Z,32.60
2019-05-01T18:19:09.900Z,33.25
2019-05-01T18:21:46.785Z,35.75
2019-05-01T18:24:23.179Z,33.00
2019-05-01T18:26:54.913Z,34.50
2019-05-01T18:29:28.622Z,36.00
2019-05-01T18:32:03.061Z,35.00
2019-05-01T18:34:38.342Z,35.25
2019-05-01T18:37:13.826Z,31.00
2019-05-01T18:39:47.544Z,33.00
2019-05-01T18:42:21.240Z,33.75
2019-05-01T18:44:55.016Z,28.00
2019-05-01T18:47:28.832Z,35.20
2019-05-01T18:50:04.211Z,33.80
2019-05-01T18:52:37.930Z,29.75
2019-05-01T18:55:11.730Z,35.00
2019-05-01T18:57:45.467Z,31.00
2019-05-01T19:00:19.172Z,35.00
2019-05-01T19:02:52.898Z,32.80
2019-05-01T19:05:26.633Z,32.25
2019-05-01T19:08:00.463Z,34.00
2019-05-01T19:10:34.164Z,31.75
2019-05-01T19:13:07.886Z,33.00
2019-05-01T19:15:41.627Z,34.25
2019-05-01T19:18:15.386Z,36.75
2019-05-01T19:20:59.403Z,34.00
2019-05-01T19:23:27.948Z,33.75
2019-05-01T19:26:04.948Z,32.80
2019-05-01T19:28:36.311Z,30.00
2019-05-01T19:31:10.040Z,31.25
2019-05-01T19:33:43.898Z,31.40
2019-05-01T19:36:17.639Z,34.20
2019-05-01T19:38:51.363Z,35.75
2019-05-01T19:41:25.099Z,30.75
2019-05-01T19:43:58.813Z,34.00
2019-05-01T19:46:32.532Z,27.25
2019-05-01T19:49:06.245Z,33.50
2019-05-01T19:51:40.023Z,33.00
2019-05-01T19:54:13.776Z,34.00
2019-05-01T19:56:47.560Z,28.00
2019-05-01T19:59:21.419Z,36.25
2019-05-01T20:01:55.250Z,34.80
2019-05-01T20:04:28.999Z,37.50
2019-05-01T20:07:02.831Z,37.50
2019-05-01T20:09:36.639Z,33.00
2019-05-01T20:12:10.344Z,36.00
2019-05-01T20:14:44.057Z,34.60
2019-05-01T20:17:17.944Z,36.40
2019-05-01T20:19:51.680Z,36.00
2019-05-01T20:22:25.405Z,32.50
2019-05-01T20:24:59.124Z,37.00
2019-05-01T20:27:32.844Z,33.25
2019-05-01T20:30:07.226Z,34.00
2019-05-01T20:32:40.930Z,38.50
2019-05-01T20:35:14.722Z,35.75
2019-05-01T20:37:48.418Z,38.00
2019-05-01T20:40:22.226Z,38.00
2019-05-01T20:42:55.936Z,38.50
2019-05-01T20:45:29.666Z,38.25
2019-05-01T20:48:03.506Z,39.50
2019-05-01T20:50:37.235Z,40.60
2019-05-01T20:53:10.946Z,39.00
2019-05-01T20:55:44.784Z,42.00
2019-05-01T20:58:18.518Z,41.75
2019-05-01T21:00:53.604Z,39.00
2019-05-01T21:03:27.710Z,40.50
2019-05-01T21:06:02.882Z,39.00
2019-05-01T21:08:39.261Z,40.25
2019-05-01T21:11:13.063Z,38.00
2019-05-01T21:13:46.858Z,37.00
2019-05-01T21:16:20.593Z,38.00
2019-05-01T21:18:54.315Z,36.80
2019-05-01T21:21:28.034Z,41.00
2019-05-01T21:24:03.561Z,40.00
2019-05-01T21:26:37.352Z,38.60
2019-05-01T21:29:11.070Z,38.00
2019-05-01T21:31:44.862Z,32.25
2019-05-01T21:34:18.599Z,32.25
2019-05-01T21:36:53.923Z,38.60
2019-05-01T21:39:27.907Z,39.00
2019-05-01T21:42:06.605Z,42.50
2019-05-01T21:44:37.037Z,40.75
2019-05-01T21:47:10.735Z,37.75
2019-05-01T21:49:44.571Z,38.20
2019-05-01T21:52:23.055Z,40.40
2019-05-01T21:54:55.201Z,37.50
2019-05-01T21:57:30.581Z,37.75
2019-05-01T22:00:06.205Z,39.00
2019-05-01T22:02:41.502Z,40.00
2019-05-01T22:05:15.401Z,39.00
2019-05-01T22:07:49.117Z,39.75
2019-05-01T22:10:26.577Z,42.25
2019-05-01T22:12:58.266Z,43.50
2019-05-01T22:15:32.054Z,40.00
2019-05-01T22:18:05.768Z,39.00
2019-05-01T22:20:39.545Z,40.00
2019-05-01T22:23:17.014Z,43.20
2019-05-01T22:25:49.450Z,35.50
2019-05-01T22:28:23.169Z,33.50
2019-05-01T22:30:56.882Z,41.00
2019-05-01T22:33:30.621Z,38.25
2019-05-01T22:36:04.331Z,40.25
2019-05-01T22:38:38.127Z,41.75
2019-05-01T22:41:11.829Z,37.25
2019-05-01T22:43:45.543Z,41.50
2019-05-01T22:46:19.253Z,38.75
2019-05-01T22:48:52.974Z,42.50
2019-05-01T22:51:26.686Z,39.20
2019-05-01T22:54:00.408Z,41.50
2019-05-01T22:56:34.145Z,42.50
2019-05-01T22:59:07.849Z,41.25
2019-05-01T23:01:41.554Z,39.25
2019-05-01T23:04:17.058Z,42.00
2019-05-01T23:06:50.675Z,41.25
2019-05-01T23:09:28.532Z,42.75
2019-05-01T23:11:59.922Z,42.00
2019-05-01T23:14:33.669Z,39.50
2019-05-01T23:17:07.389Z,43.00
2019-05-01T23:19:41.111Z,37.75
2019-05-01T23:22:14.824Z,41.25
2019-05-01T23:24:48.537Z,38.00
2019-05-01T23:27:24.387Z,39.00
2019-05-01T23:29:57.648Z,35.25
2019-05-01T23:32:31.374Z,40.00
2019-05-01T23:35:05.855Z,40.25
2019-05-01T23:37:39.558Z,33.75
2019-05-01T23:40:15.641Z,42.25
2019-05-01T23:42:52.850Z,35.00
2019-05-01T23:45:24.095Z,29.50
2019-05-01T23:47:57.841Z,42.00
2019-05-01T23:50:31.551Z,39.00
2019-05-01T23:53:09.045Z,33.25
2019-05-01T23:55:40.662Z,35.50
2019-05-01T23:58:14.369Z,37.00
